KSTL/STL METAR and TAF weather

Enter ICAO airport designator
Station Type Date Time Source
KSTL METAR 2019/04/18 22:51 UTC NOAA

KSTL 182251Z 32006KT 10SM -RA SCT031 BKN075 OVC090 10/06 A2978 RMK AO2 RAB33 SLP082 P0000 T01000056


Station Type Date Time Source
KSTL Decoded METAR 2019/04/18 22:51 UTC NOAA

LAMBERT-ST LOUIS INTERNATIONAL AIRPORT , MO, United States (KSTL) 38-45N 90-22W 171M
Apr 18, 2019 - 06:51 PM EDT / 2019.04.18 2251 UTC
Wind: from the NW (320 degrees) at 7 MPH (6 KT):0
Visibility: 10 mile(s):0
Sky conditions: overcast
Weather: light rain
Precipitation last hour: A trace
Temperature: 50.0 F (10.0 C)
Dew Point: 42.1 F (5.6 C)
Relative Humidity: 74%
Pressure (altimeter): 29.78 in. Hg (1008 hPa)
ob: KSTL 182251Z 32006KT 10SM -RA SCT031 BKN075 OVC090 10/06 A2978 RMK AO2 RAB33 SLP082 P0000 T01000056
cycle: 23

Station Type Date Time Source
KSTL TAF 2019/04/18 21:03 UTC NOAA

TAF
AMD KSTL 182101Z 1821/1924 32012KT P6SM VCSH OVC025
TEMPO 1821/1824 4SM -SHRA BR OVC015
FM190200 35012KT P6SM VCSH OVC020
FM190800 34012KT P6SM OVC015
FM191500 34014KT P6SM OVC025
FM191900 35015KT P6SM SCT040

Example: see airport list